Terminal Aerodrome Forecast
Issued by NWS Flagstaff, AZ

Home | Current Version | Previous Version | Text Only | Print | Product List | Glossary On
Versions: 1 2 3 4 5 6 7 8 9 10 11 12 13 14 15 16 17 18
000
FTUS45 KFGZ 022330
TAFINW
TAF
KINW 022330Z 0300/0324 06008G12KT P6SM FEW080 SCT150
     FM030230 24011KT P6SM BKN150
     FM030800 12007KT P6SM BKN150
     FM032030 06007KT P6SM SCT100 SCT120=

USA.gov is the U.S. government's official web portal to all federal, state and local government web resources and services.